createdAt,value
2017-05-22T00:00:06.791Z,54.93
2017-05-22T00:02:22.226Z,55.6
2017-05-22T00:04:46.082Z,55.51
2017-05-22T00:07:09.936Z,55.69
2017-05-22T00:09:33.779Z,57.01
2017-05-22T00:13:33.949Z,55.6
2017-05-22T00:15:35.856Z,55.6
2017-05-22T00:17:42.897Z,55.51
2017-05-22T00:20:06.760Z,55.6
2017-05-22T00:22:30.638Z,55.41
2017-05-22T00:24:40.983Z,54.67
2017-05-22T00:27:04.867Z,56.76
2017-05-22T00:29:20.301Z,57.21
2017-05-22T00:31:44.173Z,57.68
2017-05-22T00:33:59.576Z,56.56
2017-05-22T00:35:52.962Z,56.82
2017-05-22T00:38:16.837Z,56.46
2017-05-22T00:40:40.691Z,56.82
2017-05-22T00:43:04.554Z,56.46
2017-05-22T00:45:28.390Z,56.92
2017-05-22T00:47:52.194Z,57.23
2017-05-22T00:50:16.032Z,57.5
2017-05-22T00:52:17.863Z,58.07
2017-05-22T00:54:41.727Z,58.45
2017-05-22T00:56:43.533Z,58.74
2017-05-22T00:59:07.392Z,58.91
2017-05-22T01:01:31.225Z,58.91
2017-05-22T01:03:33.052Z,59.77
2017-05-22T01:05:48.507Z,59.96
2017-05-22T01:08:03.890Z,59.67
2017-05-22T01:12:04.963Z,59.67
2017-05-22T01:14:29.782Z,59.96
2017-05-22T01:16:45.193Z,60.05
2017-05-22T01:19:09.008Z,59.67
2017-05-22T01:21:24.391Z,59.77
2017-05-22T01:23:48.248Z,60.79
2017-05-22T01:26:12.079Z,59.96
2017-05-22T01:28:35.861Z,60.5
2017-05-22T01:30:59.659Z,60.41
2017-05-22T01:33:23.517Z,60.44
2017-05-22T01:35:47.215Z,60.44
2017-05-22T01:38:02.628Z,59.96
2017-05-22T01:40:04.440Z,60.35
2017-05-22T01:42:28.268Z,60.63
2017-05-22T01:44:52.052Z,61.56
2017-05-22T01:47:07.431Z,62.04
2017-05-22T01:49:31.161Z,61.66
2017-05-22T01:51:54.955Z,61.18
2017-05-22T01:54:18.735Z,60.44
2017-05-22T01:56:34.128Z,60.44
2017-05-22T01:58:57.935Z,59.58
2017-05-22T02:01:21.763Z,60.44
2017-05-22T02:03:45.551Z,60.05
2017-05-22T02:06:09.303Z,61.08
2017-05-22T02:08:19.637Z,60.25
2017-05-22T02:10:43.441Z,60.25
2017-05-22T02:13:07.180Z,60.79
2017-05-22T02:15:17.515Z,60.25
2017-05-22T02:17:41.331Z,61.46
2017-05-22T02:19:56.683Z,61.37
2017-05-22T02:22:12.019Z,61.37
2017-05-22T02:24:35.720Z,62.62
2017-05-22T02:26:51.042Z,63.06
2017-05-22T02:29:06.321Z,62.96
2017-05-22T02:31:21.640Z,63.64
2017-05-22T02:33:45.383Z,63.06
2017-05-22T02:36:00.721Z,63.35
2017-05-22T02:38:07.645Z,63.45
2017-05-22T02:40:22.944Z,64.5
2017-05-22T02:42:46.713Z,64.59
2017-05-22T02:45:10.452Z,63.45
2017-05-22T02:47:34.178Z,63.64
2017-05-22T02:49:57.912Z,64.12
2017-05-22T02:52:13.191Z,63.92
2017-05-22T02:54:36.894Z,64.31
2017-05-22T02:57:00.631Z,64.89
2017-05-22T02:59:24.360Z,66.19
2017-05-22T03:01:48.082Z,66.29
2017-05-22T03:04:11.814Z,65.23
2017-05-22T03:06:35.528Z,64.95
2017-05-22T03:08:50.771Z,64.12
2017-05-22T03:11:14.520Z,64.31
2017-05-22T03:13:38.241Z,65.05
2017-05-22T03:16:01.980Z,64.76
2017-05-22T03:18:17.272Z,66.67
2017-05-22T03:20:40.997Z,65.91
2017-05-22T03:23:04.684Z,65.33
2017-05-22T03:25:28.380Z,65.71
2017-05-22T03:27:52.083Z,66.96
2017-05-22T03:30:15.785Z,66.38
2017-05-22T03:32:40.475Z,66.67
2017-05-22T03:35:04.152Z,65.05
2017-05-22T03:37:27.850Z,65.62
2017-05-22T03:39:51.559Z,65.05
2017-05-22T03:43:34.699Z,66.67
2017-05-22T03:45:58.405Z,66.67
2017-05-22T03:48:22.054Z,67.5
2017-05-22T03:50:45.716Z,67.31
2017-05-22T03:53:09.401Z,66.45
2017-05-22T03:55:34.066Z,66.64
2017-05-22T03:57:49.389Z,65.62
2017-05-22T03:59:59.713Z,65.14
2017-05-22T04:02:23.422Z,64.76
2017-05-22T04:04:47.119Z,64.47
2017-05-22T04:07:10.807Z,64.02
2017-05-22T04:09:34.515Z,64.37
2017-05-22T04:11:49.803Z,64.66
2017-05-22T04:14:13.514Z,63
2017-05-22T04:16:37.226Z,61.75
2017-05-22T04:19:00.938Z,61.3
2017-05-22T04:21:24.717Z,60.82
2017-05-22T04:23:48.495Z,59.51
2017-05-22T04:26:12.272Z,58.48
2017-05-22T04:28:36.071Z,57.9
2017-05-22T04:30:59.855Z,55.94
2017-05-22T04:33:23.706Z,50.3
2017-05-22T04:35:47.632Z,45.26
2017-05-22T04:38:11.661Z,42.14
2017-05-22T04:40:35.782Z,41.17
2017-05-22T04:42:51.514Z,41.73
2017-05-22T04:45:15.716Z,41.93
2017-05-22T04:47:39.963Z,37.96
2017-05-22T04:50:04.303Z,35.13
2017-05-22T04:52:28.715Z,31.79
2017-05-22T04:54:53.255Z,29.21
2017-05-22T04:57:17.841Z,28.54
2017-05-22T04:59:34.031Z,26.45
2017-05-22T05:01:58.740Z,24.05
2017-05-22T05:04:23.590Z,22.53
2017-05-22T05:06:48.573Z,19.17
2017-05-22T05:09:13.665Z,20.51
2017-05-22T05:11:38.855Z,17.83
2017-05-22T05:13:55.596Z,16.57
2017-05-22T05:16:20.969Z,15.88
2017-05-22T05:18:46.454Z,16.46
2017-05-22T05:21:03.516Z,15.2
2017-05-22T05:23:29.128Z,16.07
2017-05-22T05:25:54.819Z,14.82
2017-05-22T05:28:20.637Z,14.64
2017-05-22T05:30:46.454Z,13.18
2017-05-22T05:33:03.810Z,11.72
2017-05-22T05:35:29.743Z,12.41
2017-05-22T05:37:55.820Z,10.64
2017-05-22T05:40:21.885Z,10.27
2017-05-22T05:42:48.027Z,10.16
2017-05-22T05:45:05.634Z,10.06
2017-05-22T05:47:31.865Z,10.63
2017-05-22T05:49:58.125Z,10.84
2017-05-22T05:52:24.902Z,9.76
2017-05-22T05:54:42.674Z,11.31
2017-05-22T05:56:53.807Z,10.55
2017-05-22T05:59:20.253Z,10.93
2017-05-22T06:01:31.364Z,13.44
2017-05-22T06:03:57.822Z,9.86
2017-05-22T06:08:00.877Z,8.49
2017-05-22T06:10:18.816Z,8.1
2017-05-22T06:12:45.373Z,7.71
2017-05-22T06:15:11.934Z,7.7
2017-05-22T06:17:38.571Z,8.29
2017-05-22T06:20:05.277Z,10.33
2017-05-22T06:22:31.970Z,8.87
2017-05-22T06:24:58.694Z,9.86
2017-05-22T06:27:25.498Z,10.35
2017-05-22T06:29:52.208Z,7.7
2017-05-22T06:32:19.022Z,9.46
2017-05-22T06:34:45.790Z,9.08
2017-05-22T06:36:57.040Z,8.4
2017-05-22T06:39:23.910Z,7.31
2017-05-22T06:41:50.820Z,8.69
2017-05-22T06:44:17.793Z,12.29
2017-05-22T06:46:20.422Z,16.61
2017-05-22T06:48:47.456Z,20.37
2017-05-22T06:51:14.416Z,16.46
2017-05-22T06:53:16.995Z,15.11
2017-05-22T06:55:43.829Z,15.11
2017-05-22T06:58:10.514Z,16.35
2017-05-22T07:00:37.037Z,19.91
2017-05-22T07:03:03.435Z,20.01
2017-05-22T07:05:29.619Z,21.25
2017-05-22T07:07:55.646Z,25.18
2017-05-22T07:10:21.496Z,21.74
2017-05-22T07:12:15.300Z,20.51
2017-05-22T07:14:41.032Z,20.67
2017-05-22T07:17:06.657Z,24.79
2017-05-22T07:19:32.155Z,22.02
2017-05-22T07:21:57.581Z,22.41
2017-05-22T07:24:22.941Z,27.86
2017-05-22T07:26:48.262Z,28.5
2017-05-22T07:29:13.510Z,24.73
2017-05-22T07:31:30.230Z,23.83
2017-05-22T07:33:47.014Z,22.16
2017-05-22T07:36:12.224Z,23.3
2017-05-22T07:38:37.496Z,23.49
2017-05-22T07:41:02.789Z,25.5
2017-05-22T07:43:28.093Z,23.88
2017-05-22T07:47:30.606Z,23.36
2017-05-22T07:49:32.790Z,24.35
2017-05-22T07:51:58.190Z,24.91
2017-05-22T07:54:23.572Z,23.55
2017-05-22T07:56:48.958Z,23.36
2017-05-22T07:59:14.340Z,22.41
2017-05-22T08:01:31.243Z,23.47
2017-05-22T08:03:48.117Z,24.29
2017-05-22T08:06:13.539Z,24.13
2017-05-22T08:08:38.990Z,23.08
2017-05-22T08:11:04.423Z,23.27
2017-05-22T08:13:06.628Z,21.47
2017-05-22T08:15:32.125Z,21.45
2017-05-22T08:17:57.611Z,20.47
2017-05-22T08:20:23.026Z,25.04
2017-05-22T08:22:48.506Z,21.66
2017-05-22T08:25:13.941Z,18.27
2017-05-22T08:27:31.883Z,18.79
2017-05-22T08:29:57.300Z,19.15
2017-05-22T08:32:14.236Z,17.23
2017-05-22T08:34:16.576Z,19.22
2017-05-22T08:36:18.900Z,17.6
2017-05-22T08:38:35.923Z,17.6
2017-05-22T08:41:01.414Z,17.79
2017-05-22T08:43:18.424Z,18.65
2017-05-22T08:45:35.429Z,16.35
2017-05-22T08:48:00.966Z,17.77
2017-05-22T08:50:18.006Z,18.46
2017-05-22T08:52:43.529Z,20.09
2017-05-22T08:55:00.552Z,18.92
2017-05-22T08:57:26.044Z,18.37
2017-05-22T08:59:44.004Z,16.43
2017-05-22T09:02:09.521Z,17.77
2017-05-22T09:04:26.525Z,17.49
2017-05-22T09:06:52.065Z,16.26
2017-05-22T09:09:17.598Z,17.31
2017-05-22T09:11:43.098Z,22.2
2017-05-22T09:14:08.627Z,19.54
2017-05-22T09:16:34.132Z,20.2
2017-05-22T09:18:59.626Z,18.29
2017-05-22T09:21:01.888Z,19.82
2017-05-22T09:23:18.875Z,19.54
2017-05-22T09:25:44.394Z,21.75
2017-05-22T09:28:09.842Z,20.32
2017-05-22T09:30:26.688Z,22.02
2017-05-22T09:32:52.106Z,19.27
2017-05-22T09:35:17.545Z,18.98
2017-05-22T09:37:42.983Z,19.96
2017-05-22T09:40:08.401Z,22.05
2017-05-22T09:42:19.247Z,18.9
2017-05-22T09:44:36.189Z,16.86
2017-05-22T09:47:01.609Z,19.27
2017-05-22T09:49:18.599Z,20.49
2017-05-22T09:51:44.003Z,19.26
2017-05-22T09:54:10.379Z,20.21
2017-05-22T09:56:35.756Z,20.01
2017-05-22T09:59:01.102Z,21.22
2017-05-22T10:01:17.930Z,21.73
2017-05-22T10:03:43.235Z,25.85
2017-05-22T10:06:08.510Z,24.22
2017-05-22T10:08:25.228Z,25.2
2017-05-22T10:10:50.481Z,23.94
2017-05-22T10:13:15.691Z,24.8
2017-05-22T10:15:26.454Z,25.54
2017-05-22T10:17:51.671Z,27.64
2017-05-22T10:20:16.820Z,26.14
2017-05-22T10:22:41.880Z,26.7
2017-05-22T10:25:06.960Z,26.62
2017-05-22T10:27:32.006Z,27.82
2017-05-22T10:29:48.512Z,28.39
2017-05-22T10:32:04.980Z,28.99
2017-05-22T10:34:29.871Z,29.18
2017-05-22T10:36:54.751Z,29.75
2017-05-22T10:39:19.643Z,29.39
2017-05-22T10:41:44.525Z,26.91
2017-05-22T10:44:09.426Z,25.75
2017-05-22T10:46:34.313Z,26.8
2017-05-22T10:48:59.162Z,28.4
2017-05-22T10:51:24.061Z,29.44
2017-05-22T10:53:48.886Z,30.48
2017-05-22T10:56:13.670Z,31.82
2017-05-22T10:58:38.411Z,31.07
2017-05-22T11:00:54.695Z,29.08
2017-05-22T11:02:56.748Z,29.76
2017-05-22T11:04:58.761Z,29.86
2017-05-22T11:07:15.116Z,30.51
2017-05-22T11:09:39.890Z,28.78
2017-05-22T11:11:41.955Z,30.59
2017-05-22T11:14:06.767Z,31.74
2017-05-22T11:16:31.480Z,29.46
2017-05-22T11:18:47.803Z,27.55
2017-05-22T11:21:04.027Z,27.93
2017-05-22T11:23:28.754Z,28.65
2017-05-22T11:25:53.487Z,26.95
2017-05-22T11:28:18.228Z,27.72
2017-05-22T11:30:42.980Z,31.08
2017-05-22T11:33:07.751Z,29.74
2017-05-22T11:35:32.508Z,29.16
2017-05-22T11:37:57.296Z,28.78
2017-05-22T11:40:13.609Z,27.64
2017-05-22T11:42:38.381Z,28.42
2017-05-22T11:45:03.138Z,27.65
2017-05-22T11:47:27.910Z,29.72
2017-05-22T11:49:52.707Z,30.38
2017-05-22T11:52:17.466Z,28.57
2017-05-22T11:54:33.800Z,27.82
2017-05-22T11:56:58.502Z,30.14
2017-05-22T11:59:09.157Z,29.54
2017-05-22T12:03:10.288Z,29.36
2017-05-22T12:05:35.078Z,30.87
2017-05-22T12:07:51.355Z,29.75
2017-05-22T12:10:16.116Z,29.36
2017-05-22T12:12:32.361Z,28.59
2017-05-22T12:14:57.091Z,27.83
2017-05-22T12:17:21.854Z,27.55
2017-05-22T12:19:46.595Z,27.54
2017-05-22T12:22:11.369Z,27.44
2017-05-22T12:24:36.162Z,28.22
2017-05-22T12:27:00.958Z,26.89
2017-05-22T12:29:25.673Z,29.94
2017-05-22T12:31:27.720Z,29.76
2017-05-22T12:33:35.571Z,30.71
2017-05-22T12:36:00.293Z,29.65
2017-05-22T12:38:16.563Z,28.51
2017-05-22T12:40:32.828Z,29.47
2017-05-22T12:42:57.569Z,28.8
2017-05-22T12:45:22.334Z,28.23
2017-05-22T12:47:47.060Z,27.64
2017-05-22T12:50:11.823Z,27.83
2017-05-22T12:52:36.576Z,27.36
2017-05-22T12:55:01.329Z,26.91
2017-05-22T12:57:26.114Z,27.55
2017-05-22T12:59:50.869Z,26.69
2017-05-22T13:02:15.620Z,27.75
2017-05-22T13:04:40.416Z,27.66
2017-05-22T13:06:48.244Z,28.49
2017-05-22T13:09:13.037Z,27.65
2017-05-22T13:11:37.758Z,27.56
2017-05-22T13:14:02.566Z,26.9
2017-05-22T13:16:27.389Z,29.38
2017-05-22T13:18:52.177Z,27.56
2017-05-22T13:21:17.938Z,27.18
2017-05-22T13:23:42.755Z,26.7
2017-05-22T13:26:07.575Z,28.13
2017-05-22T13:28:32.397Z,27.45
2017-05-22T13:30:57.195Z,27.75
2017-05-22T13:33:21.994Z,27.75
2017-05-22T13:35:46.799Z,28.32
2017-05-22T13:38:11.598Z,28.3
2017-05-22T13:40:22.257Z,29.93
2017-05-22T13:42:47.013Z,29.86
2017-05-22T13:45:11.751Z,29.66
2017-05-22T13:47:36.470Z,30.14
2017-05-22T13:50:01.147Z,30.8
2017-05-22T13:52:25.829Z,32.42
2017-05-22T13:54:50.517Z,31.37
2017-05-22T13:57:06.733Z,30.8
2017-05-22T13:59:31.404Z,29.85
2017-05-22T14:01:56.098Z,29.93
2017-05-22T14:04:21.698Z,30.61
2017-05-22T14:06:46.353Z,30.61
2017-05-22T14:09:11.016Z,30.52
2017-05-22T14:11:35.732Z,29.85
2017-05-22T14:14:00.425Z,29.75
2017-05-22T14:16:16.693Z,29.28
2017-05-22T14:18:41.351Z,29.57
2017-05-22T14:21:06.033Z,28.99
2017-05-22T14:23:30.738Z,28.61
2017-05-22T14:25:55.437Z,28.69
2017-05-22T14:28:06.087Z,30.8
2017-05-22T14:30:30.872Z,29.19
2017-05-22T14:32:38.803Z,29.46
2017-05-22T14:35:03.577Z,29.83
2017-05-22T14:37:11.400Z,29.38
2017-05-22T14:39:36.172Z,29.38
2017-05-22T14:41:52.507Z,29.38
2017-05-22T14:44:17.264Z,29.55
2017-05-22T14:46:42.053Z,29.55
2017-05-22T14:49:07.796Z,29.47
2017-05-22T14:51:32.503Z,28.99
2017-05-22T14:53:57.392Z,28.14
2017-05-22T14:56:13.690Z,28.74
2017-05-22T14:58:38.386Z,27.86
2017-05-22T15:00:54.652Z,27.84
2017-05-22T15:02:56.389Z,27.56
2017-05-22T15:05:21.248Z,27.76
2017-05-22T15:07:46.036Z,27.39
2017-05-22T15:10:10.843Z,27.55
2017-05-22T15:12:22.472Z,28.61
2017-05-22T15:14:47.352Z,28.63
2017-05-22T15:17:12.114Z,29.3
2017-05-22T15:19:36.930Z,30.22
2017-05-22T15:22:01.732Z,30.61
2017-05-22T15:24:26.514Z,30.61
2017-05-22T15:26:51.325Z,31.29
2017-05-22T15:29:16.011Z,29.57
2017-05-22T15:31:40.720Z,30.14
2017-05-22T15:34:05.517Z,30.14
2017-05-22T15:36:30.224Z,30.15
2017-05-22T15:38:54.914Z,29.75
2017-05-22T15:41:19.691Z,30.71
2017-05-22T15:43:44.397Z,31.68
2017-05-22T15:45:46.010Z,31.19
2017-05-22T15:48:02.261Z,31.85
2017-05-22T15:50:26.949Z,31.57
2017-05-22T15:52:51.643Z,31.65
2017-05-22T15:55:16.338Z,31.94
2017-05-22T15:57:41.033Z,32.04
2017-05-22T16:00:05.743Z,31.08
2017-05-22T16:02:30.438Z,31.1
2017-05-22T16:04:55.109Z,31.47
2017-05-22T16:07:11.354Z,31.85
2017-05-22T16:09:36.026Z,31.85
2017-05-22T16:12:00.719Z,32.05
2017-05-22T16:14:25.417Z,31.85
2017-05-22T16:16:50.109Z,32.13
2017-05-22T16:19:14.809Z,31.57
2017-05-22T16:21:39.463Z,31.37
2017-05-22T16:24:05.119Z,31.84
2017-05-22T16:26:29.809Z,32.13
2017-05-22T16:28:46.014Z,32.13
2017-05-22T16:31:10.685Z,32.42
2017-05-22T16:33:26.987Z,31.84
2017-05-22T16:35:53.647Z,32.13
2017-05-22T16:38:18.336Z,32.42
2017-05-22T16:40:43.042Z,32.79
2017-05-22T16:43:07.635Z,32.89
2017-05-22T16:45:32.275Z,33.84
2017-05-22T16:47:56.824Z,33.56
2017-05-22T16:50:21.517Z,33.57
2017-05-22T16:52:31.584Z,32.6
2017-05-22T16:54:56.169Z,33.28
2017-05-22T16:57:20.753Z,33.18
2017-05-22T16:59:45.347Z,32.62
2017-05-22T17:02:01.445Z,32.71
2017-05-22T17:04:17.576Z,32.7
2017-05-22T17:06:42.246Z,31.84
2017-05-22T17:09:06.837Z,32.52
2017-05-22T17:11:33.475Z,33.07
2017-05-22T17:13:58.077Z,33.65
2017-05-22T17:16:22.667Z,33.09
2017-05-22T17:18:47.252Z,34.04
2017-05-22T17:21:11.853Z,35.38
2017-05-22T17:23:43.932Z,35.36
2017-05-22T17:26:08.493Z,35.46
2017-05-22T17:28:09.990Z,35.85
2017-05-22T17:30:11.482Z,36.43
2017-05-22T17:32:36.104Z,35.46
2017-05-22T17:35:01.624Z,35.75
2017-05-22T17:37:26.120Z,36.16
2017-05-22T17:39:50.700Z,35.28
2017-05-22T17:42:15.205Z,35.28
2017-05-22T17:44:39.801Z,34.61
2017-05-22T17:47:04.391Z,34.53
2017-05-22T17:49:20.384Z,34.81
2017-05-22T17:51:28.699Z,34.43
2017-05-22T17:53:53.285Z,34.62
2017-05-22T17:56:17.886Z,34.62
2017-05-22T17:58:42.481Z,35.28
2017-05-22T18:01:07.079Z,34.99
2017-05-22T18:03:31.565Z,34.41
2017-05-22T18:05:33.550Z,34.7
2017-05-22T18:07:58.119Z,35.09
2017-05-22T18:10:22.711Z,35.17
2017-05-22T18:12:33.255Z,35.27
2017-05-22T18:14:49.379Z,35.09
2017-05-22T18:17:13.864Z,35.46
2017-05-22T18:19:38.346Z,36.24
2017-05-22T18:22:02.854Z,36.91
2017-05-22T18:24:27.337Z,37.87
2017-05-22T18:26:51.831Z,37.19
2017-05-22T18:29:16.337Z,37.96
2017-05-22T18:31:40.802Z,39.01
2017-05-22T18:34:06.333Z,38.33
2017-05-22T18:36:16.385Z,38.25
2017-05-22T18:38:40.864Z,37.96
2017-05-22T18:41:05.354Z,38.25
2017-05-22T18:43:29.847Z,39.2
2017-05-22T18:45:54.344Z,38.91
2017-05-22T18:48:18.737Z,39.28
2017-05-22T18:50:43.229Z,39.28
2017-05-22T18:53:07.718Z,39.01
2017-05-22T18:55:32.193Z,39.57
2017-05-22T18:57:56.594Z,39.86
2017-05-22T19:00:22.010Z,40.34
2017-05-22T19:02:46.498Z,40.25
2017-05-22T19:05:10.913Z,40.63
2017-05-22T19:07:35.273Z,40.63
2017-05-22T19:09:51.273Z,40.61
2017-05-22T19:12:15.660Z,40.53
2017-05-22T19:14:40.305Z,40.63
2017-05-22T19:17:05.464Z,40.25
2017-05-22T19:19:15.977Z,41.48
2017-05-22T19:21:40.410Z,41.09
2017-05-22T19:23:56.346Z,41.02
2017-05-22T19:26:12.295Z,41.58
2017-05-22T19:28:36.685Z,41.87
2017-05-22T19:31:01.074Z,42.24
2017-05-22T19:33:27.714Z,43.2
2017-05-22T19:35:52.113Z,43.49
2017-05-22T19:38:23.366Z,43.59
2017-05-22T19:40:47.750Z,43.76
2017-05-22T19:43:18.802Z,43.95
2017-05-22T19:45:51.106Z,44.43
2017-05-22T19:48:15.461Z,44.24
2017-05-22T19:50:40.877Z,44.53
2017-05-22T19:53:05.354Z,44.75
2017-05-22T19:55:44.894Z,44.82
2017-05-22T19:57:45.854Z,44.24
2017-05-22T20:00:24.052Z,44.82
2017-05-22T20:02:34.361Z,44.82
2017-05-22T20:04:59.561Z,45.89
2017-05-22T20:07:09.550Z,46.25
2017-05-22T20:09:11.641Z,45.59
2017-05-22T20:11:36.163Z,46.81
2017-05-22T20:13:52.032Z,47.09
2017-05-22T20:16:16.481Z,46.81
2017-05-22T20:18:40.691Z,46.81
2017-05-22T20:20:56.578Z,46.81
2017-05-22T20:23:20.951Z,46.73
2017-05-22T20:25:45.257Z,46.81
2017-05-22T20:28:01.142Z,47.02
2017-05-22T20:30:25.440Z,47.12
2017-05-22T20:32:27.373Z,47.22
2017-05-22T20:34:51.687Z,47.29
2017-05-22T20:37:15.986Z,47.48
2017-05-22T20:39:40.264Z,47.48
2017-05-22T20:42:04.548Z,47.96
2017-05-22T20:44:28.829Z,47.96
2017-05-22T20:46:53.121Z,47.96
2017-05-22T20:49:17.403Z,47.96
2017-05-22T20:51:41.689Z,48.06
2017-05-22T20:54:05.980Z,47.96
2017-05-22T20:56:30.168Z,48.44
2017-05-22T20:58:54.448Z,48.16
2017-05-22T21:01:18.722Z,48.06
2017-05-22T21:03:42.915Z,48.9
2017-05-22T21:06:07.204Z,48.52
2017-05-22T21:08:31.484Z,49.75
2017-05-22T21:10:55.784Z,49.75
2017-05-22T21:13:19.960Z,49.84
2017-05-22T21:15:44.128Z,50.49
2017-05-22T21:18:08.335Z,50.88
2017-05-22T21:20:09.816Z,50.62
2017-05-22T21:22:25.568Z,49.75
2017-05-22T21:24:49.758Z,49.94
2017-05-22T21:27:13.943Z,49.84
2017-05-22T21:29:38.120Z,49.94
2017-05-22T21:32:02.300Z,49.94
2017-05-22T21:34:12.299Z,49.94
2017-05-22T21:36:36.542Z,50.32
2017-05-22T21:38:52.328Z,50.13
2017-05-22T21:41:16.515Z,50.52
2017-05-22T21:43:40.702Z,50.81
2017-05-22T21:45:56.381Z,49.65
2017-05-22T21:48:20.463Z,49.65
2017-05-22T21:50:36.250Z,49.94
2017-05-22T21:53:00.437Z,50.52
2017-05-22T21:55:24.621Z,50.42
2017-05-22T21:57:48.811Z,50.69
2017-05-22T22:00:04.586Z,51.2
2017-05-22T22:02:28.784Z,50.52
2017-05-22T22:04:52.958Z,51
2017-05-22T22:07:17.137Z,51.26
2017-05-22T22:09:32.931Z,51.2
2017-05-22T22:11:57.118Z,52.13
2017-05-22T22:14:21.305Z,52.23
2017-05-22T22:16:36.981Z,51.75
2017-05-22T22:19:01.160Z,52.13
2017-05-22T22:21:16.922Z,52.71
2017-05-22T22:23:41.031Z,52.13
2017-05-22T22:26:05.220Z,52.52
2017-05-22T22:28:29.404Z,52.71
2017-05-22T22:30:53.586Z,52.42
2017-05-22T22:32:55.080Z,52.61
2017-05-22T22:35:19.223Z,52.71
2017-05-22T22:37:43.392Z,52.42
2017-05-22T22:40:07.588Z,52.42
2017-05-22T22:42:31.785Z,52.61
2017-05-22T22:44:55.862Z,53.65
2017-05-22T22:47:20.048Z,53.19
2017-05-22T22:49:44.233Z,53.39
2017-05-22T22:51:54.334Z,54.03
2017-05-22T22:54:18.566Z,54.52
2017-05-22T22:56:42.754Z,53.94
2017-05-22T22:58:58.502Z,54.03
2017-05-22T23:01:22.647Z,54.06
2017-05-22T23:03:38.292Z,54.22
2017-05-22T23:06:02.393Z,53.67
2017-05-22T23:08:12.379Z,53.67
2017-05-22T23:10:36.528Z,54.13
2017-05-22T23:12:52.266Z,53.65
2017-05-22T23:15:16.396Z,53.94
2017-05-22T23:17:40.567Z,53.84
2017-05-22T23:20:04.650Z,53.48
2017-05-22T23:22:28.740Z,53.36
2017-05-22T23:24:44.383Z,53.65
2017-05-22T23:27:08.500Z,54.13
2017-05-22T23:29:32.574Z,53.17
2017-05-22T23:31:56.680Z,53.65
2017-05-22T23:34:20.849Z,54.13
2017-05-22T23:36:44.924Z,54.13
2017-05-22T23:39:09.017Z,53.94
2017-05-22T23:41:33.097Z,54.58
2017-05-22T23:43:57.185Z,53.94
2017-05-22T23:46:21.266Z,54.68
2017-05-22T23:48:31.172Z,54.42
2017-05-22T23:50:55.302Z,54.68
2017-05-22T23:53:19.384Z,54.49
2017-05-22T23:55:35.059Z,54.49
2017-05-22T23:57:59.145Z,54.68
